createdAt,value
2023-01-31T00:02:14.672Z,12.27
2023-01-31T00:12:15.964Z,13.02
2023-01-31T00:22:17.198Z,13.60
2023-01-31T05:21:22.493Z,18.02
2023-01-31T05:31:23.854Z,19.30
2023-01-31T05:41:25.126Z,19.58
2023-01-31T05:51:26.359Z,19.30
2023-01-31T06:01:27.628Z,19.52
2023-01-31T06:21:47.585Z,19.25
2023-01-31T06:31:48.931Z,20.05
2023-01-31T06:41:50.369Z,17.92
2023-01-31T06:51:51.618Z,18.80
2023-01-31T07:01:53.420Z,19.58
2023-01-31T07:11:54.721Z,18.02
2023-01-31T07:21:56.196Z,21.30
2023-01-31T07:31:57.847Z,21.00
2023-01-31T07:41:59.147Z,20.58
2023-01-31T07:52:00.386Z,20.55
2023-01-31T08:02:20.294Z,16.85
2023-01-31T08:12:21.556Z,17.17
2023-01-31T09:03:43.664Z,13.35
2023-01-31T09:13:45.096Z,13.43
2023-01-31T09:23:46.346Z,14.00
2023-01-31T09:33:47.604Z,10.18
2023-01-31T09:43:48.857Z,9.32
2023-01-31T10:14:27.956Z,9.93
2023-01-31T10:24:29.317Z,10.57
2023-01-31T10:34:31.121Z,11.38
2023-01-31T10:44:32.623Z,10.93
2023-01-31T10:54:34.168Z,12.55
2023-01-31T11:25:13.368Z,10.63
2023-01-31T11:35:14.608Z,10.27
2023-01-31T11:45:15.894Z,9.82
2023-01-31T11:55:17.146Z,10.68
2023-01-31T12:05:18.416Z,10.32
2023-01-31T13:06:55.869Z,7.03
2023-01-31T13:17:00.016Z,7.63
2023-01-31T13:27:02.213Z,7.65
2023-01-31T13:37:03.486Z,6.50
2023-01-31T13:47:04.727Z,8.00
2023-01-31T15:09:18.949Z,6.10
2023-01-31T15:19:20.352Z,5.60
2023-01-31T15:29:21.610Z,5.53
2023-01-31T15:39:22.999Z,5.72
2023-01-31T15:49:38.006Z,7.18
2023-01-31T16:40:56.174Z,6.78
2023-01-31T16:50:57.522Z,7.43
2023-01-31T17:00:58.760Z,7.22
2023-01-31T17:11:00.030Z,6.15
2023-01-31T17:21:01.304Z,6.70
2023-01-31T18:02:01.569Z,7.63
2023-01-31T18:12:02.899Z,6.80
2023-01-31T18:22:04.234Z,7.50
2023-01-31T18:32:07.853Z,7.15
2023-01-31T18:42:09.166Z,6.90
2023-01-31T22:08:12.164Z,6.22
2023-01-31T22:18:13.592Z,6.25
2023-01-31T22:28:14.835Z,7.15
2023-01-31T22:38:16.250Z,7.30
2023-01-31T22:48:17.492Z,6.95
2023-01-31T22:58:19.920Z,6.53
2023-01-31T23:49:37.253Z,5.85
2023-01-31T23:59:38.560Z,5.45
